createdAt,value
2017-10-07T00:00:10.242Z,91.5
2017-10-07T00:01:12.668Z,91.5
2017-10-07T00:02:15.102Z,91.5
2017-10-07T00:03:17.518Z,91.5
2017-10-07T00:04:19.955Z,91.6
2017-10-07T00:05:22.384Z,91.6
2017-10-07T00:06:24.816Z,91.6
2017-10-07T00:07:27.241Z,91.7
2017-10-07T00:08:29.998Z,91.6
2017-10-07T00:09:32.427Z,91.5
2017-10-07T00:10:34.860Z,91.6
2017-10-07T00:11:37.315Z,91.6
2017-10-07T00:12:39.749Z,91.6
2017-10-07T00:13:42.162Z,91.6
2017-10-07T00:14:44.600Z,91.6
2017-10-07T00:15:47.028Z,91.7
2017-10-07T00:16:49.455Z,91.7
2017-10-07T00:17:51.893Z,91.7
2017-10-07T00:18:54.299Z,91.6
2017-10-07T00:19:57.064Z,91.6
2017-10-07T00:20:59.502Z,91.6
2017-10-07T00:22:01.929Z,91.5
2017-10-07T00:23:04.698Z,91.5
2017-10-07T00:24:07.118Z,91.5
2017-10-07T00:25:09.544Z,91.6
2017-10-07T00:26:11.982Z,91.7
2017-10-07T00:27:14.404Z,91.6
2017-10-07T00:28:16.821Z,91.7
2017-10-07T00:29:19.262Z,91.6
2017-10-07T00:30:21.686Z,91.6
2017-10-07T00:31:24.119Z,91.6
2017-10-07T00:32:26.541Z,91.6
2017-10-07T00:33:28.964Z,91.6
2017-10-07T00:34:31.734Z,91.7
2017-10-07T00:35:34.175Z,91.6
2017-10-07T00:36:36.603Z,91.6
2017-10-07T00:37:39.027Z,91.6
2017-10-07T00:38:41.446Z,91.5
2017-10-07T00:39:43.887Z,91.5
2017-10-07T00:40:46.317Z,91.5
2017-10-07T00:41:48.742Z,91.5
2017-10-07T00:42:51.173Z,91.5
2017-10-07T00:43:53.596Z,91.5
2017-10-07T00:44:56.031Z,91.5
2017-10-07T00:45:58.465Z,91.5
2017-10-07T00:47:00.876Z,91.5
2017-10-07T00:48:03.303Z,91.4
2017-10-07T00:49:05.737Z,91.4
2017-10-07T00:50:08.168Z,91.4
2017-10-07T00:51:10.601Z,91.4
2017-10-07T00:52:13.018Z,91.4
2017-10-07T00:53:15.449Z,91.3
2017-10-07T00:54:17.890Z,91.3
2017-10-07T00:55:20.321Z,91.3
2017-10-07T00:56:22.756Z,91.2
2017-10-07T00:57:25.178Z,91.2
2017-10-07T00:58:27.603Z,91.1
2017-10-07T00:59:30.037Z,91.1
2017-10-07T01:00:32.461Z,91.2
2017-10-07T01:01:34.877Z,91.2
2017-10-07T01:02:37.307Z,91.2
2017-10-07T01:03:39.737Z,91.1
2017-10-07T01:04:42.169Z,91.2
2017-10-07T01:05:44.601Z,91.2
2017-10-07T01:06:47.022Z,91.2
2017-10-07T01:07:49.447Z,91.2
2017-10-07T01:08:52.217Z,91.2
2017-10-07T01:09:54.640Z,91.2
2017-10-07T01:10:57.066Z,91.2
2017-10-07T01:11:59.503Z,91.2
2017-10-07T01:13:01.925Z,91.2
2017-10-07T01:14:04.363Z,91.3
2017-10-07T01:15:06.799Z,91.3
2017-10-07T01:16:09.226Z,91.2
2017-10-07T01:17:11.656Z,91.3
2017-10-07T01:18:14.092Z,91.2
2017-10-07T01:19:16.509Z,91.2
2017-10-07T01:20:18.952Z,91.2
2017-10-07T01:21:21.383Z,91.1
2017-10-07T01:22:24.160Z,91.1
2017-10-07T01:23:26.580Z,91
2017-10-07T01:24:29.016Z,91
2017-10-07T01:25:31.445Z,91
2017-10-07T01:26:33.871Z,91
2017-10-07T01:27:36.288Z,90.9
2017-10-07T01:28:38.716Z,90.9
2017-10-07T01:29:41.141Z,90.9
2017-10-07T01:30:43.576Z,90.9
2017-10-07T01:31:46.003Z,90.9
2017-10-07T01:32:48.433Z,90.9
2017-10-07T01:33:50.869Z,90.9
2017-10-07T01:34:53.308Z,90.9
2017-10-07T01:35:55.730Z,90.9
2017-10-07T01:36:58.162Z,90.9
2017-10-07T01:38:00.588Z,91
2017-10-07T01:39:03.035Z,91
2017-10-07T01:40:05.461Z,91.1
2017-10-07T01:41:07.899Z,91.1
2017-10-07T01:42:10.672Z,91.1
2017-10-07T01:43:13.445Z,91.1
2017-10-07T01:44:15.885Z,91
2017-10-07T01:45:18.304Z,91
2017-10-07T01:46:20.737Z,91
2017-10-07T01:47:23.156Z,91
2017-10-07T01:48:25.576Z,91
2017-10-07T01:49:28.007Z,91
2017-10-07T01:50:30.445Z,91.1
2017-10-07T01:51:32.857Z,91.1
2017-10-07T01:52:35.284Z,91.1
2017-10-07T01:53:37.717Z,91.1
2017-10-07T01:54:40.138Z,91.1
2017-10-07T01:55:42.572Z,91.1
2017-10-07T01:56:45.368Z,91.1
2017-10-07T01:57:47.785Z,91.1
2017-10-07T01:58:50.220Z,91.1
2017-10-07T01:59:52.646Z,91.1
2017-10-07T02:00:55.079Z,91.1
2017-10-07T02:01:57.508Z,91.1
2017-10-07T02:02:59.942Z,91.1
2017-10-07T02:04:02.366Z,91.1
2017-10-07T02:05:04.797Z,91.1
2017-10-07T02:06:07.225Z,91.1
2017-10-07T02:07:09.651Z,91.2
2017-10-07T02:08:12.068Z,91.2
2017-10-07T02:09:14.503Z,91.1
2017-10-07T02:10:16.942Z,91.2
2017-10-07T02:11:19.370Z,91.1
2017-10-07T02:12:21.796Z,91.1
2017-10-07T02:13:24.225Z,91.2
2017-10-07T02:14:26.655Z,91.2
2017-10-07T02:15:29.089Z,91.1
2017-10-07T02:16:31.520Z,91.1
2017-10-07T02:17:34.271Z,91.1
2017-10-07T02:18:36.699Z,91.1
2017-10-07T02:19:39.139Z,91.2
2017-10-07T02:20:41.561Z,91.1
2017-10-07T02:21:43.990Z,91.2
2017-10-07T02:22:46.408Z,91.2
2017-10-07T02:23:48.825Z,91.2
2017-10-07T02:24:51.269Z,91.1
2017-10-07T02:25:53.696Z,91
2017-10-07T02:26:56.118Z,91.1
2017-10-07T02:27:58.551Z,91.2
2017-10-07T02:29:00.981Z,91.2
2017-10-07T02:30:03.413Z,91.2
2017-10-07T02:31:05.854Z,91.3
2017-10-07T02:32:08.269Z,91.2
2017-10-07T02:33:10.693Z,91.1
2017-10-07T02:34:13.134Z,91.2
2017-10-07T02:35:15.556Z,91.1
2017-10-07T02:36:18.339Z,91.1
2017-10-07T02:37:20.768Z,91.2
2017-10-07T02:38:23.199Z,91.2
2017-10-07T02:39:25.981Z,91.2
2017-10-07T02:40:28.414Z,91.2
2017-10-07T02:41:30.837Z,91.2
2017-10-07T02:42:33.607Z,91.2
2017-10-07T02:43:36.026Z,91.2
2017-10-07T02:44:38.454Z,91.2
2017-10-07T02:45:40.880Z,91.2
2017-10-07T02:46:43.305Z,91.2
2017-10-07T02:47:45.734Z,91.2
2017-10-07T02:48:48.166Z,91.2
2017-10-07T02:49:50.589Z,91.1
2017-10-07T02:50:53.366Z,91.1
2017-10-07T02:51:56.138Z,91.1
2017-10-07T02:52:58.561Z,91.1
2017-10-07T02:54:00.995Z,91.2
2017-10-07T02:55:03.431Z,91.1
2017-10-07T02:56:05.853Z,91.1
2017-10-07T02:57:08.641Z,91.1
2017-10-07T02:58:11.057Z,91.1
2017-10-07T02:59:13.487Z,91.2
2017-10-07T03:00:15.920Z,91.2
2017-10-07T03:01:18.345Z,91.1
2017-10-07T03:02:20.774Z,91.1
2017-10-07T03:03:23.206Z,91.2
2017-10-07T03:04:25.631Z,91.1
2017-10-07T03:05:28.056Z,91.1
2017-10-07T03:06:30.487Z,91
2017-10-07T03:07:32.933Z,91.1
2017-10-07T03:08:35.362Z,91.1
2017-10-07T03:09:37.778Z,91.1
2017-10-07T03:10:40.209Z,91.1
2017-10-07T03:11:42.631Z,91.1
2017-10-07T03:12:45.064Z,91.1
2017-10-07T03:13:47.494Z,91.1
2017-10-07T03:14:49.910Z,91.1
2017-10-07T03:15:52.346Z,91.1
2017-10-07T03:16:54.784Z,91
2017-10-07T03:17:57.212Z,91
2017-10-07T03:18:59.643Z,91
2017-10-07T03:20:02.064Z,91
2017-10-07T03:21:04.485Z,90.9
2017-10-07T03:22:07.269Z,90.9
2017-10-07T03:23:09.700Z,90.9
2017-10-07T03:24:12.465Z,90.9
2017-10-07T03:25:14.900Z,90.9
2017-10-07T03:26:17.331Z,90.8
2017-10-07T03:27:19.762Z,90.7
2017-10-07T03:28:22.189Z,90.7
2017-10-07T03:29:24.608Z,90.8
2017-10-07T03:30:27.392Z,90.7
2017-10-07T03:31:29.823Z,90.8
2017-10-07T03:32:32.617Z,90.9
2017-10-07T03:33:35.046Z,90.9
2017-10-07T03:34:37.481Z,91
2017-10-07T03:35:39.906Z,91
2017-10-07T03:36:42.330Z,91.1
2017-10-07T03:37:44.759Z,91.1
2017-10-07T03:38:47.190Z,91
2017-10-07T03:39:49.619Z,91.1
2017-10-07T03:40:52.036Z,91.1
2017-10-07T03:41:54.471Z,91
2017-10-07T03:42:56.895Z,91
2017-10-07T03:43:59.335Z,91.1
2017-10-07T03:45:01.771Z,91.1
2017-10-07T03:46:04.194Z,91.1
2017-10-07T03:47:06.624Z,91.2
2017-10-07T03:48:09.058Z,91.2
2017-10-07T03:49:11.488Z,91.1
2017-10-07T03:50:13.910Z,91.2
2017-10-07T03:51:16.684Z,91.1
2017-10-07T03:52:19.114Z,91.1
2017-10-07T03:53:21.549Z,91.1
2017-10-07T03:54:24.330Z,91.1
2017-10-07T03:55:26.746Z,91.2
2017-10-07T03:56:29.174Z,91.2
2017-10-07T03:57:31.937Z,91.3
2017-10-07T03:58:34.367Z,91.3
2017-10-07T03:59:36.788Z,91.2
2017-10-07T04:00:39.214Z,91.3
2017-10-07T04:01:41.639Z,91.2
2017-10-07T04:02:44.079Z,91.3
2017-10-07T04:03:46.507Z,91.3
2017-10-07T04:04:48.932Z,91.2
2017-10-07T04:05:51.366Z,91.1
2017-10-07T04:06:53.799Z,91.1
2017-10-07T04:07:56.235Z,91.2
2017-10-07T04:08:58.657Z,91.3
2017-10-07T04:10:01.083Z,91.4
2017-10-07T04:11:03.512Z,91.4
2017-10-07T04:12:05.945Z,91.4
2017-10-07T04:13:08.710Z,91.3
2017-10-07T04:14:11.141Z,91.3
2017-10-07T04:15:13.562Z,91.3
2017-10-07T04:16:15.997Z,91.4
2017-10-07T04:17:18.418Z,91.4
2017-10-07T04:18:20.845Z,91.3
2017-10-07T04:19:23.272Z,91.4
2017-10-07T04:20:25.710Z,91.3
2017-10-07T04:21:28.482Z,91.2
2017-10-07T04:22:30.916Z,91.2
2017-10-07T04:23:33.342Z,91.2
2017-10-07T04:24:35.770Z,91.2
2017-10-07T04:25:38.202Z,91.3
2017-10-07T04:26:40.631Z,91.3
2017-10-07T04:27:43.055Z,91.3
2017-10-07T04:28:45.482Z,91.3
2017-10-07T04:29:48.595Z,91.3
2017-10-07T04:30:51.043Z,91.3
2017-10-07T04:31:53.478Z,91.3
2017-10-07T04:32:55.914Z,91.3
2017-10-07T04:33:58.338Z,91.2
2017-10-07T04:35:00.769Z,91.2
2017-10-07T04:36:03.192Z,91.2
2017-10-07T04:37:05.619Z,91.1
2017-10-07T04:38:08.409Z,91.2
2017-10-07T04:39:11.182Z,91.2
2017-10-07T04:40:13.608Z,91.2
2017-10-07T04:41:16.044Z,91.2
2017-10-07T04:42:18.471Z,91.2
2017-10-07T04:43:20.894Z,91.2
2017-10-07T04:44:23.327Z,91.2
2017-10-07T04:45:25.744Z,91.2
2017-10-07T04:46:28.164Z,91.3
2017-10-07T04:47:30.951Z,91.3
2017-10-07T04:48:33.379Z,91.2
2017-10-07T04:49:35.811Z,91.2
2017-10-07T04:50:38.234Z,91.3
2017-10-07T04:51:40.655Z,91.3
2017-10-07T04:52:43.465Z,91.2
2017-10-07T04:53:46.248Z,91.3
2017-10-07T04:54:48.661Z,91.3
2017-10-07T04:55:51.097Z,91.4
2017-10-07T04:56:53.518Z,91.5
2017-10-07T04:57:55.937Z,91.5
2017-10-07T04:58:58.374Z,91.5
2017-10-07T05:00:01.137Z,91.4
2017-10-07T05:01:03.564Z,91.3
2017-10-07T05:02:05.993Z,91.3
2017-10-07T05:03:08.425Z,91.2
2017-10-07T05:04:10.840Z,91.3
2017-10-07T05:05:13.272Z,91.3
2017-10-07T05:06:15.691Z,91.3
2017-10-07T05:07:18.268Z,91.3
2017-10-07T05:08:20.694Z,91.2
2017-10-07T05:09:23.130Z,91.2
2017-10-07T05:10:25.552Z,91.2
2017-10-07T05:11:27.991Z,91.2
2017-10-07T05:12:30.409Z,91.2
2017-10-07T05:13:32.843Z,91.2
2017-10-07T05:14:35.266Z,91.2
2017-10-07T05:15:37.691Z,91.2
2017-10-07T05:16:40.110Z,91.2
2017-10-07T05:17:42.541Z,91.2
2017-10-07T05:18:44.958Z,91.3
2017-10-07T05:19:47.724Z,91.4
2017-10-07T05:20:50.146Z,91.3
2017-10-07T05:21:52.583Z,91.2
2017-10-07T05:22:55.002Z,91.3
2017-10-07T05:23:57.436Z,91.2
2017-10-07T05:24:59.866Z,91.2
2017-10-07T05:26:02.298Z,91.2
2017-10-07T05:27:04.726Z,91.2
2017-10-07T05:28:07.160Z,91.1
2017-10-07T05:29:09.926Z,91.2
2017-10-07T05:30:12.371Z,91.2
2017-10-07T05:31:14.798Z,91.2
2017-10-07T05:32:17.219Z,91.3
2017-10-07T05:33:19.654Z,91.3
2017-10-07T05:34:22.082Z,91.3
2017-10-07T05:35:24.500Z,91.3
2017-10-07T05:36:26.939Z,91.2
2017-10-07T05:37:29.374Z,91.2
2017-10-07T05:38:31.804Z,91.2
2017-10-07T05:39:34.237Z,91.3
2017-10-07T05:40:36.659Z,91.4
2017-10-07T05:41:39.087Z,91.4
2017-10-07T05:42:41.524Z,91.4
2017-10-07T05:43:43.948Z,91.3
2017-10-07T05:44:46.714Z,91.4
2017-10-07T05:45:49.135Z,91.4
2017-10-07T05:46:51.556Z,91.5
2017-10-07T05:47:53.975Z,91.4
2017-10-07T05:48:56.401Z,91.4
2017-10-07T05:49:58.835Z,91.4
2017-10-07T05:51:01.265Z,91.4
2017-10-07T05:52:03.690Z,91.4
2017-10-07T05:53:06.489Z,91.4
2017-10-07T05:54:08.915Z,91.4
2017-10-07T05:55:11.354Z,91.3
2017-10-07T05:56:13.771Z,91.3
2017-10-07T05:57:16.200Z,91.3
2017-10-07T05:58:18.964Z,91.3
2017-10-07T05:59:21.394Z,91.3
2017-10-07T06:00:23.818Z,91.4
2017-10-07T06:01:26.247Z,91.3
2017-10-07T06:02:28.674Z,91.4
2017-10-07T06:03:31.093Z,91.3
2017-10-07T06:04:33.867Z,91.3
2017-10-07T06:05:36.290Z,91.4
2017-10-07T06:06:39.056Z,91.5
2017-10-07T06:07:41.490Z,91.5
2017-10-07T06:08:44.276Z,91.4
2017-10-07T06:09:46.689Z,91.4
2017-10-07T06:10:49.130Z,91.4
2017-10-07T06:11:51.554Z,91.5
2017-10-07T06:12:53.979Z,91.5
2017-10-07T06:13:56.758Z,91.5
2017-10-07T06:14:59.187Z,91.4
2017-10-07T06:16:01.617Z,91.5
2017-10-07T06:17:04.387Z,91.4
2017-10-07T06:18:06.799Z,91.4
2017-10-07T06:19:09.234Z,91.5
2017-10-07T06:20:11.673Z,91.5
2017-10-07T06:21:14.102Z,91.5
2017-10-07T06:22:16.547Z,91.5
2017-10-07T06:23:19.231Z,91.5
2017-10-07T06:24:21.661Z,91.5
2017-10-07T06:25:24.096Z,91.6
2017-10-07T06:26:26.523Z,91.5
2017-10-07T06:27:28.933Z,91.5
2017-10-07T06:28:31.365Z,91.5
2017-10-07T06:29:33.804Z,91.5
2017-10-07T06:30:36.242Z,91.4
2017-10-07T06:31:38.689Z,91.4
2017-10-07T06:32:41.101Z,91.5
2017-10-07T06:33:43.539Z,91.5
2017-10-07T06:34:46.328Z,91.2
2017-10-07T06:35:48.768Z,91.2
2017-10-07T06:36:51.196Z,91.3
2017-10-07T06:37:53.616Z,91.3
2017-10-07T06:38:56.047Z,91.3
2017-10-07T06:39:58.484Z,91.3
2017-10-07T06:41:00.912Z,91.3
2017-10-07T06:42:03.351Z,91.3
2017-10-07T06:43:05.769Z,91.3
2017-10-07T06:44:08.208Z,91.2
2017-10-07T06:45:10.642Z,91.2
2017-10-07T06:46:13.074Z,91.2
2017-10-07T06:47:15.505Z,91.3
2017-10-07T06:48:17.943Z,91.2
2017-10-07T06:49:20.371Z,91.1
2017-10-07T06:50:22.805Z,90.9
2017-10-07T06:51:25.591Z,90.9
2017-10-07T06:52:28.017Z,91
2017-10-07T06:53:30.459Z,91.1
2017-10-07T06:54:32.876Z,91.1
2017-10-07T06:55:35.644Z,91.2
2017-10-07T06:56:38.415Z,91.3
2017-10-07T06:57:40.845Z,91.3
2017-10-07T06:58:43.276Z,91.3
2017-10-07T06:59:45.708Z,91.3
2017-10-07T07:00:48.130Z,91.3
2017-10-07T07:01:51.249Z,91.3
2017-10-07T07:02:53.684Z,91.3
2017-10-07T07:03:56.109Z,91.5
2017-10-07T07:04:58.541Z,91.4
2017-10-07T07:06:01.320Z,91.4
2017-10-07T07:07:03.748Z,91.5
2017-10-07T07:08:06.168Z,91.4
2017-10-07T07:09:08.609Z,91.4
2017-10-07T07:10:11.032Z,91.3
2017-10-07T07:11:13.466Z,91.3
2017-10-07T07:12:15.891Z,91.4
2017-10-07T07:13:18.337Z,91.4
2017-10-07T07:14:20.763Z,91.4
2017-10-07T07:15:23.205Z,91.4
2017-10-07T07:16:25.630Z,91.5
2017-10-07T07:17:28.063Z,91.6
2017-10-07T07:18:30.498Z,91.4
2017-10-07T07:19:32.927Z,91.5
2017-10-07T07:20:35.355Z,91.4
2017-10-07T07:21:37.778Z,91.5
2017-10-07T07:22:40.208Z,91.4
2017-10-07T07:23:42.641Z,91.5
2017-10-07T07:24:45.429Z,91.6
2017-10-07T07:25:47.837Z,91.6
2017-10-07T07:26:50.266Z,91.6
2017-10-07T07:27:52.697Z,91.6
2017-10-07T07:28:55.463Z,91.5
2017-10-07T07:29:57.893Z,91.6
2017-10-07T07:31:00.323Z,91.5
2017-10-07T07:32:02.741Z,91.5
2017-10-07T07:33:05.168Z,91.5
2017-10-07T07:34:07.603Z,91.5
2017-10-07T07:35:10.020Z,91.4
2017-10-07T07:36:12.444Z,91.5
2017-10-07T07:37:14.879Z,91.5
2017-10-07T07:38:17.312Z,91.4
2017-10-07T07:39:19.754Z,91.5
2017-10-07T07:40:22.189Z,91.6
2017-10-07T07:41:24.604Z,91.5
2017-10-07T07:42:27.040Z,91.4
2017-10-07T07:43:29.478Z,91.5
2017-10-07T07:44:31.902Z,91.4
2017-10-07T07:45:34.328Z,91.4
2017-10-07T07:46:36.762Z,91.6
2017-10-07T07:47:39.194Z,91.6
2017-10-07T07:48:41.632Z,91.6
2017-10-07T07:49:44.060Z,91.5
2017-10-07T07:50:46.475Z,91.6
2017-10-07T07:51:48.909Z,91.6
2017-10-07T07:52:51.334Z,91.6
2017-10-07T07:53:53.769Z,91.5
2017-10-07T07:54:56.205Z,91.5
2017-10-07T07:55:58.630Z,91.5
2017-10-07T07:57:01.406Z,91.4
2017-10-07T07:58:03.850Z,91.5
2017-10-07T07:59:06.271Z,91.5
2017-10-07T08:00:08.703Z,91.5
2017-10-07T08:01:11.126Z,91.4
2017-10-07T08:02:13.890Z,91.4
2017-10-07T08:03:16.314Z,91.4
2017-10-07T08:04:19.098Z,91.4
2017-10-07T08:05:21.527Z,91.5
2017-10-07T08:06:24.521Z,91.3
2017-10-07T08:07:27.290Z,91.1
2017-10-07T08:08:29.721Z,91.2
2017-10-07T08:09:32.157Z,91.1
2017-10-07T08:10:34.587Z,91.1
2017-10-07T08:11:37.009Z,91.3
2017-10-07T08:12:39.438Z,91.3
2017-10-07T08:13:41.856Z,91.5
2017-10-07T08:14:44.302Z,91.4
2017-10-07T08:15:46.716Z,91.4
2017-10-07T08:16:49.160Z,91.4
2017-10-07T08:17:51.585Z,91.4
2017-10-07T08:18:54.008Z,91.3
2017-10-07T08:19:56.435Z,91.3
2017-10-07T08:20:58.865Z,91.3
2017-10-07T08:22:01.297Z,91.3
2017-10-07T08:23:03.738Z,91.4
2017-10-07T08:24:06.162Z,91.4
2017-10-07T08:25:08.583Z,91.4
2017-10-07T08:26:11.024Z,91.4
2017-10-07T08:27:13.448Z,91.5
2017-10-07T08:28:16.215Z,91.4
2017-10-07T08:29:18.637Z,91.4
2017-10-07T08:30:21.061Z,91.3
2017-10-07T08:31:23.504Z,91.3
2017-10-07T08:32:25.937Z,91.3
2017-10-07T08:33:28.360Z,91.1
2017-10-07T08:34:30.785Z,91.2
2017-10-07T08:35:33.222Z,91.2
2017-10-07T08:36:35.996Z,91.3
2017-10-07T08:37:38.423Z,91.4
2017-10-07T08:38:41.183Z,91.3
2017-10-07T08:39:43.611Z,91.4
2017-10-07T08:40:46.031Z,91.5
2017-10-07T08:41:48.471Z,91.5
2017-10-07T08:42:50.887Z,91.5
2017-10-07T08:43:53.659Z,91.4
2017-10-07T08:44:56.422Z,91.4
2017-10-07T08:45:58.855Z,91.4
2017-10-07T08:47:01.275Z,91.5
2017-10-07T08:48:03.701Z,91.4
2017-10-07T08:49:06.125Z,91.5
2017-10-07T08:50:08.557Z,91.4
2017-10-07T08:51:10.995Z,91.4
2017-10-07T08:52:13.423Z,91.3
2017-10-07T08:53:15.844Z,91.4
2017-10-07T08:54:18.278Z,91.4
2017-10-07T08:55:20.708Z,91.4
2017-10-07T08:56:23.486Z,91.4
2017-10-07T08:57:25.903Z,91.5
2017-10-07T08:58:28.326Z,91.5
2017-10-07T08:59:30.745Z,91.5
2017-10-07T09:00:33.178Z,91.4
2017-10-07T09:01:35.612Z,91.4
2017-10-07T09:02:38.045Z,91.4
2017-10-07T09:03:40.471Z,91.3
2017-10-07T09:04:42.893Z,91.1
2017-10-07T09:05:45.317Z,91.3
2017-10-07T09:06:47.760Z,91.4
2017-10-07T09:07:50.520Z,91.2
2017-10-07T09:08:52.947Z,91.3
2017-10-07T09:09:55.383Z,91.4
2017-10-07T09:10:58.153Z,91.4
2017-10-07T09:12:51.906Z,91.4
2017-10-07T09:13:54.338Z,91.6
2017-10-07T09:14:56.770Z,91.6
2017-10-07T09:15:59.194Z,91.5
2017-10-07T09:17:01.617Z,91.3
2017-10-07T09:18:04.050Z,91.2
2017-10-07T09:19:06.477Z,91.2
2017-10-07T09:20:08.900Z,91.1
2017-10-07T09:21:11.340Z,91.3
2017-10-07T09:22:13.767Z,91.3
2017-10-07T09:23:16.190Z,91.3
2017-10-07T09:24:18.624Z,91.3
2017-10-07T09:25:21.049Z,91.5
2017-10-07T09:26:23.486Z,91.5
2017-10-07T09:27:25.921Z,91.5
2017-10-07T09:28:28.343Z,91.5
2017-10-07T09:29:30.774Z,91.5
2017-10-07T09:30:33.209Z,91.4
2017-10-07T09:31:35.643Z,91.2
2017-10-07T09:32:38.081Z,91.2
2017-10-07T09:33:40.714Z,91.1
2017-10-07T09:34:43.142Z,91.1
2017-10-07T09:35:45.615Z,91.1
2017-10-07T09:36:48.389Z,91.1
2017-10-07T09:37:50.819Z,91.2
2017-10-07T09:38:53.249Z,91.2
2017-10-07T09:39:55.677Z,91.4
2017-10-07T09:40:58.113Z,91.4
2017-10-07T09:42:00.545Z,91.5
2017-10-07T09:43:03.313Z,91.4
2017-10-07T09:44:05.744Z,91.3
2017-10-07T09:45:08.164Z,91.3
2017-10-07T09:46:10.593Z,91.4
2017-10-07T09:47:13.031Z,91.3
2017-10-07T09:48:15.456Z,91.3
2017-10-07T09:49:17.889Z,91.4
2017-10-07T09:50:20.327Z,91.4
2017-10-07T09:51:22.753Z,91.3
2017-10-07T09:52:25.181Z,91.2
2017-10-07T09:53:27.610Z,91.2
2017-10-07T09:54:30.031Z,91.4
2017-10-07T09:55:32.467Z,91.3
2017-10-07T09:56:34.898Z,91.3
2017-10-07T09:57:37.321Z,91.2
2017-10-07T09:58:39.758Z,91.3
2017-10-07T09:59:42.518Z,91.3
2017-10-07T10:00:44.942Z,91.3
2017-10-07T10:01:47.370Z,91.3
2017-10-07T10:02:49.801Z,91.3
2017-10-07T10:03:52.233Z,91.3
2017-10-07T10:04:54.646Z,91.4
2017-10-07T10:05:57.074Z,91.4
2017-10-07T10:06:59.513Z,91.4
2017-10-07T10:08:01.948Z,91.4
2017-10-07T10:09:04.382Z,91.4
2017-10-07T10:10:06.810Z,91.5
2017-10-07T10:11:09.239Z,91.4
2017-10-07T10:12:11.677Z,91.3
2017-10-07T10:13:14.097Z,91.3
2017-10-07T10:14:16.853Z,91.4
2017-10-07T10:15:19.294Z,91.4
2017-10-07T10:16:22.061Z,91.4
2017-10-07T10:17:24.487Z,91.4
2017-10-07T10:18:26.918Z,91.4
2017-10-07T10:19:29.340Z,91.4
2017-10-07T10:20:32.105Z,91.4
2017-10-07T10:21:34.549Z,91.4
2017-10-07T10:22:36.967Z,91.3
2017-10-07T10:23:39.391Z,91.5
2017-10-07T10:24:41.829Z,91.4
2017-10-07T10:25:44.256Z,91.4
2017-10-07T10:26:47.055Z,91.4
2017-10-07T10:27:49.487Z,91.4
2017-10-07T10:28:51.900Z,91.4
2017-10-07T10:29:54.335Z,91.4
2017-10-07T10:30:56.756Z,91.4
2017-10-07T10:31:59.186Z,91.1
2017-10-07T10:33:01.616Z,91.1
2017-10-07T10:34:04.046Z,91.1
2017-10-07T10:35:06.478Z,91
2017-10-07T10:36:08.909Z,91
2017-10-07T10:37:11.340Z,91
2017-10-07T10:38:13.788Z,91
2017-10-07T10:39:16.220Z,91
2017-10-07T10:40:18.982Z,91
2017-10-07T10:41:21.410Z,90.8
2017-10-07T10:42:23.833Z,90.7
2017-10-07T10:43:26.264Z,90.9
2017-10-07T10:44:28.701Z,90.9
2017-10-07T10:45:31.458Z,91
2017-10-07T10:46:33.888Z,91
2017-10-07T10:47:36.321Z,90.9
2017-10-07T10:48:38.739Z,90.9
2017-10-07T10:49:41.178Z,90.9
2017-10-07T10:50:43.607Z,90.9
2017-10-07T10:51:46.032Z,90.9
2017-10-07T10:52:48.473Z,90.9
2017-10-07T10:53:50.907Z,90.9
2017-10-07T10:54:53.324Z,90.8
2017-10-07T10:55:55.766Z,90.8
2017-10-07T10:56:58.200Z,90.9
2017-10-07T10:58:00.961Z,91
2017-10-07T10:59:03.387Z,91.1
2017-10-07T11:00:05.820Z,91
2017-10-07T11:01:08.248Z,91.1
2017-10-07T11:02:10.667Z,91.1
2017-10-07T11:03:13.104Z,91.1
2017-10-07T11:04:15.523Z,91.1
2017-10-07T11:05:17.964Z,90.9
2017-10-07T11:06:20.393Z,90.9
2017-10-07T11:07:23.167Z,90.9
2017-10-07T11:08:25.597Z,90.9
2017-10-07T11:09:28.031Z,90.9
2017-10-07T11:10:30.454Z,90.9
2017-10-07T11:11:32.876Z,90.9
2017-10-07T11:12:35.299Z,90.8
2017-10-07T11:13:37.732Z,90.8
2017-10-07T11:14:40.160Z,90.7
2017-10-07T11:15:42.591Z,90.8
2017-10-07T11:16:45.009Z,90.8
2017-10-07T11:17:47.436Z,90.8
2017-10-07T11:18:50.209Z,90.8
2017-10-07T11:19:52.645Z,90.9
2017-10-07T11:20:55.068Z,90.9
2017-10-07T11:21:57.498Z,90.9
2017-10-07T11:22:59.926Z,91
2017-10-07T11:24:02.361Z,90.9
2017-10-07T11:25:04.789Z,90.9
2017-10-07T11:26:07.564Z,91
2017-10-07T11:27:09.979Z,91
2017-10-07T11:28:12.418Z,91
2017-10-07T11:29:14.850Z,91
2017-10-07T11:30:17.271Z,91.1
2017-10-07T11:31:20.047Z,91.1
2017-10-07T11:32:22.481Z,91.2
2017-10-07T11:33:24.902Z,91.2
2017-10-07T11:34:27.326Z,91.3
2017-10-07T11:35:29.767Z,91.3
2017-10-07T11:36:32.180Z,91.3
2017-10-07T11:37:34.988Z,91.1
2017-10-07T11:38:38.096Z,91.1
2017-10-07T11:39:40.527Z,91.1
2017-10-07T11:40:42.956Z,91.2
2017-10-07T11:41:45.387Z,91.2
2017-10-07T11:42:47.811Z,91.3
2017-10-07T11:43:50.251Z,91.4
2017-10-07T11:44:52.662Z,91.5
2017-10-07T11:45:55.090Z,91.4
2017-10-07T11:46:57.513Z,91.3
2017-10-07T11:47:59.940Z,91.3
2017-10-07T11:49:02.364Z,91.1
2017-10-07T11:50:04.799Z,91.1
2017-10-07T11:51:07.221Z,91.1
2017-10-07T11:52:09.657Z,91.1
2017-10-07T11:53:12.082Z,91.2
2017-10-07T11:54:14.517Z,91.1
2017-10-07T11:55:16.943Z,91.1
2017-10-07T11:56:19.371Z,91.1
2017-10-07T11:57:21.794Z,91.1
2017-10-07T11:58:24.217Z,91.2
2017-10-07T11:59:26.645Z,91.3
2017-10-07T12:00:29.082Z,91.3
2017-10-07T12:01:31.514Z,91.2
2017-10-07T12:02:33.937Z,91.2
2017-10-07T12:03:36.375Z,91.1
2017-10-07T12:04:38.800Z,91.1
2017-10-07T12:05:41.222Z,91.1
2017-10-07T12:06:43.652Z,91.2
2017-10-07T12:07:46.073Z,91.2
2017-10-07T12:08:48.503Z,91.1
2017-10-07T12:09:50.934Z,91.2
2017-10-07T12:10:53.347Z,91.2
2017-10-07T12:11:55.776Z,91.3
2017-10-07T12:12:58.552Z,91.2
2017-10-07T12:14:00.981Z,91.2
2017-10-07T12:15:03.415Z,91.2
2017-10-07T12:16:05.829Z,91.2
2017-10-07T12:17:08.258Z,91.1
2017-10-07T12:18:10.700Z,91.1
2017-10-07T12:19:13.130Z,91.2
2017-10-07T12:20:15.564Z,91.2
2017-10-07T12:21:17.985Z,91.2
2017-10-07T12:22:20.408Z,91.2
2017-10-07T12:23:22.842Z,91.2
2017-10-07T12:24:25.602Z,91.1
2017-10-07T12:25:28.019Z,91.1
2017-10-07T12:26:30.788Z,91.1
2017-10-07T12:27:33.216Z,91.2
2017-10-07T12:28:35.647Z,91.1
2017-10-07T12:29:38.074Z,91.1
2017-10-07T12:30:40.856Z,91.2
2017-10-07T12:31:43.288Z,91.2
2017-10-07T12:32:45.701Z,91.2
2017-10-07T12:33:48.123Z,91.1
2017-10-07T12:34:50.563Z,91.1
2017-10-07T12:35:52.984Z,91.2
2017-10-07T12:36:55.403Z,91.2
2017-10-07T12:37:58.183Z,91.1
2017-10-07T12:39:00.955Z,91.2
2017-10-07T12:40:03.395Z,91.2
2017-10-07T12:41:06.166Z,91.2
2017-10-07T12:42:08.578Z,91.1
2017-10-07T12:43:11.020Z,91.1
2017-10-07T12:44:13.438Z,91.2
2017-10-07T12:45:15.880Z,91.2
2017-10-07T12:46:18.310Z,91.1
2017-10-07T12:47:20.739Z,91.1
2017-10-07T12:48:23.165Z,91.2
2017-10-07T12:49:25.599Z,91.2
2017-10-07T12:50:28.015Z,91.2
2017-10-07T12:51:30.441Z,91.1
2017-10-07T12:52:32.864Z,91.2
2017-10-07T12:53:35.291Z,91.1
2017-10-07T12:54:37.725Z,91.1
2017-10-07T12:55:40.157Z,91
2017-10-07T12:56:42.584Z,90.9
2017-10-07T12:57:45.018Z,91
2017-10-07T12:58:47.816Z,91.1
2017-10-07T12:59:50.597Z,91.2
2017-10-07T13:00:53.019Z,91.2
2017-10-07T13:01:55.443Z,91.2
2017-10-07T13:02:57.870Z,91.2
2017-10-07T13:04:00.293Z,91.3
2017-10-07T13:05:02.723Z,91.3
2017-10-07T13:06:05.150Z,91.3
2017-10-07T13:07:07.572Z,91.3
2017-10-07T13:08:10.015Z,91.2
2017-10-07T13:09:12.443Z,91.2
2017-10-07T13:10:14.878Z,91.2
2017-10-07T13:11:17.307Z,91.3
2017-10-07T13:12:19.737Z,91.3
2017-10-07T13:13:22.503Z,91.2
2017-10-07T13:14:24.937Z,91.3
2017-10-07T13:15:27.359Z,91.3
2017-10-07T13:16:29.782Z,91.2
2017-10-07T13:17:32.571Z,91.2
2017-10-07T13:18:34.998Z,91.2
2017-10-07T13:19:37.419Z,91.3
2017-10-07T13:20:39.846Z,91.2
2017-10-07T13:21:42.273Z,91.2
2017-10-07T13:22:44.706Z,91.2
2017-10-07T13:23:47.142Z,91.2
2017-10-07T13:24:49.967Z,91.2
2017-10-07T13:25:52.389Z,91.3
2017-10-07T13:26:54.833Z,91.3
2017-10-07T13:27:57.602Z,91.4
2017-10-07T13:29:00.037Z,91.2
2017-10-07T13:30:02.493Z,91.2
2017-10-07T13:31:04.917Z,91.2
2017-10-07T13:32:07.345Z,91.2
2017-10-07T13:33:09.786Z,91.2
2017-10-07T13:34:12.211Z,90.9
2017-10-07T13:35:14.997Z,91
2017-10-07T13:36:17.446Z,91
2017-10-07T13:37:19.876Z,91.1
2017-10-07T13:38:22.312Z,91.1
2017-10-07T13:39:24.751Z,91.1
2017-10-07T13:40:27.170Z,91.1
2017-10-07T13:41:29.594Z,91.2
2017-10-07T13:42:32.376Z,91.1
2017-10-07T13:43:34.796Z,91.2
2017-10-07T13:44:37.222Z,91.2
2017-10-07T13:45:39.647Z,91.3
2017-10-07T13:46:42.083Z,91.3
2017-10-07T13:47:44.512Z,91.3
2017-10-07T13:48:46.941Z,91.2
2017-10-07T13:49:49.713Z,91.1
2017-10-07T13:50:52.151Z,91.1
2017-10-07T13:51:54.579Z,91.1
2017-10-07T13:52:57.014Z,91.2
2017-10-07T13:53:59.437Z,91.1
2017-10-07T13:55:01.860Z,91.1